SVPL1: Red River at Shreveport Site 2

                                SHEF ID:       SVPL1     Red River at Shreveport Site 2
STATION TYPE:

PRECIP STAGE RIV-FLOW VOLTAGE
in ft cfs volt
Ccp-Rev Ccp-Rev Ccp-Rev Ccp-Rev
(America/Chicago)
06/23 00:00 0.00 20.04 45200 12.82
06/23 01:00 0.00 20.00 45000 12.81
06/23 02:00 0.00 20.04 45200 12.80
06/23 03:00 0.00 20.02 45100 12.77
06/23 04:00 0.00 20.11 45550 12.75
06/23 05:00 0.00 20.13 45650 12.73
06/23 06:00 0.00 20.07 45350 12.73
06/23 07:00 0.00 20.19 45950 12.72
06/23 08:00 0.00 20.29 46450 12.87
06/23 09:00 0.00 20.30 46500 13.16
06/23 10:00 0.00 20.27 46350 13.36
06/23 11:00 0.00 20.36 46800 13.32
06/23 12:00 0.00 20.36 46800 13.22
06/23 13:00 0.00 20.40 47000 13.05
06/23 14:00 0.00 20.41 47050 13.06
06/23 15:00 0.00 20.37 46850 13.07
06/23 16:00 0.00 20.45 47250 13.06
06/23 17:00 0.00 20.45 47250 13.08
06/23 18:00 0.00 20.47 47350 12.96
06/23 19:00 0.00 20.49 47450 12.90
06/23 20:00 0.00 20.50 47500 12.88
06/23 21:00 0.00 20.59 47950 12.86
06/23 22:00 0.00 20.65 48250 12.85
06/23 23:00 0.00 20.59 47950 12.86
Data processed at Wed 24Jun2026 04:24 GMT

NOTICE: If you are parsing this page

Please convert to using our Data API. Starting early 2026 we will be migrating to: https://water.usace.army.mil with modern pages rendered in JavaScript. When this migration completes you will no longer be able to scrape this page! CWMSDataAPI (CDA)

Timeseries IDs (TSIDs)

TSIDs used from left to right in the data table
SHRE.Precip-Inc.Total.1Hour.1Hour.Ccp-Rev
SHRE.Stage.Inst.1Hour.0.Ccp-Rev
SHRE.Flow.Inst.1Hour.0.Ccp-Rev
SHRE.Volt-Battery.Inst.1Hour.0.Ccp-Rev

                            

All information presented herein is the property of the government of the United States of America and may be revised or deleted at any time without prior notice. Dissemination of this information without the expressed written consent of the Public Affairs Office, Tulsa District U.S. Army Corps of Engineers is strictly prohibited. These data are gathered electronically and, as presented, have NOT undergone any form of quality control. These data are NOT guaranteed to be valid or correct.